logo
Search for airport 
image banner adimage banner adimage banner ad
image banner ad

WMGK - Gong Kedak

Located in Jerteh, Malaysia

ICAO - WMGK, IATA -

Data provided by Airmate  

General information

Coordinates: N5°47'56" E102°29'4"
Elevation is 20 feet MSL.
 
View others Airports in Kelantan

Operational data

Special qualification required
Current time UTC:
Current local time:
METAR: WMKC 032000Z 20003KT 140V280 9999 FEW020 25/24 Q1010
TAF: TAF WMKC 031700Z 0318/0418 VRB03KT 9999 FEW020
View NOTAMs / SUP AIP / TFR affecting this airport [VIEW]
Communications frequencies: [VIEW]

Runways:

RWY identifierQFULength (ft)Width (ft)SurfaceLDA (ft)
0882°8497148ASP
26262°8497148ASP

Airport contact information

Address: Jerteh Malaysia

Satellite view of WMGK